Time;durP1;ratioP1;P1;durP2;ratioP2;P2;SDS_P1;SDS_P2;PMS_P1;PMS_P2;Temp;Humidity;BMP_temperature;BMP_pressure;BME280_temperature;BME280_humidity;BME280_pressure;Samples;Min_cycle;Max_cycle;Signal;HPM_P1;HPM_P2
2022/06/04 00:00:49;;;;;;;11.60;5.68;;;;;;;;;;5056995;28;20640;-74
2022/06/04 00:03:17;;;;;;;9.50;6.03;;;;;;;;;;5041405;28;20053;-75
2022/06/04 00:05:47;;;;;;;9.52;5.43;;;;;;;;;;5058290;28;20048;-74
2022/06/04 00:08:14;;;;;;;12.98;5.80;;;;;;;;;;5060193;28;20130;-75
2022/06/04 00:16:17;;;;;;;12.93;4.85;;;;;;;;;;5057348;28;21244;-74
2022/06/04 00:18:44;;;;;;;10.60;5.70;;;;;;;;;;5060468;28;20055;-74
2022/06/04 00:21:15;;;;;;;11.43;5.68;;;;;;;;;;5057611;28;20044;-74
2022/06/04 00:23:42;;;;;;;10.13;5.80;;;;;;;;;;5058248;28;20048;-75
2022/06/04 00:26:11;;;;;;;8.50;5.55;;;;;;;;;;5062666;28;20222;-75
2022/06/04 00:28:38;;;;;;;8.10;4.90;;;;;;;;;;5052647;28;20052;-74
2022/06/04 00:31:05;;;;;;;7.25;4.75;;;;;;;;;;5054411;28;20093;-74
2022/06/04 00:33:33;;;;;;;9.15;5.55;;;;;;;;;;5060429;28;20087;-74
2022/06/04 00:36:00;;;;;;;8.10;5.18;;;;;;;;;;5057570;28;20982;-74
2022/06/04 00:38:29;;;;;;;9.10;5.38;;;;;;;;;;5054813;28;20155;-74
2022/06/04 00:41:14;;;;;;;7.45;4.55;;;;;;;;;;5063477;28;20135;-74
2022/06/04 00:44:03;;;;;;;10.10;5.20;;;;;;;;;;5053207;28;20129;-74
2022/06/04 00:46:40;;;;;;;11.60;5.90;;;;;;;;;;5057676;28;20044;-74
2022/06/04 00:49:07;;;;;;;9.88;6.35;;;;;;;;;;5059230;28;21224;-74
2022/06/04 00:51:35;;;;;;;8.70;5.68;;;;;;;;;;5061909;28;21335;-74
2022/06/04 00:54:02;;;;;;;9.52;5.72;;;;;;;;;;5057095;28;20048;-74
2022/06/04 00:56:42;;;;;;;10.82;5.90;;;;;;;;;;5057617;28;20063;-74
2022/06/04 00:59:09;;;;;;;13.80;6.55;;;;;;;;;;5035973;28;20846;-74
2022/06/04 01:01:44;;;;;;;12.20;6.80;;;;;;;;;;5058734;28;20051;-75
2022/06/04 01:04:47;;;;;;;11.60;6.22;;;;;;;;;;5044357;28;20055;-75
2022/06/04 01:07:19;;;;;;;12.52;6.30;;;;;;;;;;5048800;28;20071;-74
2022/06/04 01:10:07;;;;;;;11.55;6.85;;;;;;;;;;5026021;28;20098;-74
2022/06/04 01:12:52;;;;;;;13.00;6.47;;;;;;;;;;5052898;28;20187;-74
2022/06/04 01:15:35;;;;;;;19.05;6.30;;;;;;;;;;5051736;28;20049;-75
2022/06/04 01:18:02;;;;;;;10.02;6.55;;;;;;;;;;5055346;28;20052;-75
2022/06/04 01:20:48;;;;;;;10.43;6.45;;;;;;;;;;5052316;28;20053;-75
2022/06/04 01:23:34;;;;;;;12.63;6.25;;;;;;;;;;5037624;28;20072;-75
2022/06/04 01:26:20;;;;;;;13.00;6.43;;;;;;;;;;5046640;28;20234;-74
2022/06/04 01:28:47;;;;;;;;;;;;;;;;;;5038402;28;20048;-75
2022/06/04 01:31:19;;;;;;;11.43;5.53;;;;;;;;;;5056150;28;19959;-75
2022/06/04 01:33:50;;;;;;;16.48;6.93;;;;;;;;;;5048741;28;20052;-75
2022/06/04 01:36:20;;;;;;;8.73;6.57;;;;;;;;;;5057388;28;20479;-75
2022/06/04 01:38:47;;;;;;;11.13;6.97;;;;;;;;;;5062097;28;20056;-74
2022/06/04 01:41:22;;;;;;;9.85;6.28;;;;;;;;;;5056446;28;20043;-74
2022/06/04 01:44:01;;;;;;;9.73;6.05;;;;;;;;;;5060909;28;21326;-75
2022/06/04 01:46:31;;;;;;;20.55;5.57;;;;;;;;;;5057831;28;20161;-75
2022/06/04 01:49:02;;;;;;;9.25;6.03;;;;;;;;;;5057700;28;20044;-75
2022/06/04 01:51:31;;;;;;;12.35;6.53;;;;;;;;;;5062103;28;20149;-74
2022/06/04 01:54:09;;;;;;;8.25;5.97;;;;;;;;;;5068844;28;20447;-75
2022/06/04 01:56:38;;;;;;;10.02;6.65;;;;;;;;;;5065327;28;20147;-74
2022/06/04 01:59:09;;;;;;;16.30;6.40;;;;;;;;;;5042667;28;20048;-75
2022/06/04 02:01:37;;;;;;;15.15;7.00;;;;;;;;;;5055142;28;20141;-75
2022/06/04 02:04:08;;;;;;;11.02;6.95;;;;;;;;;;5054195;28;20151;-74
2022/06/04 02:06:43;;;;;;;16.38;6.78;;;;;;;;;;5061950;28;20747;-75
2022/06/04 02:09:14;;;;;;;10.77;5.80;;;;;;;;;;5055436;28;20048;-74
2022/06/04 02:11:44;;;;;;;9.50;5.95;;;;;;;;;;5061677;28;20050;-74
2022/06/04 02:14:11;;;;;;;9.93;6.22;;;;;;;;;;5044802;28;20048;-76
2022/06/04 02:16:42;;;;;;;13.20;6.57;;;;;;;;;;5058359;28;20791;-76
2022/06/04 02:19:10;;;;;;;11.23;6.63;;;;;;;;;;5069152;28;20091;-76
2022/06/04 02:21:38;;;;;;;10.02;6.35;;;;;;;;;;5065499;28;20128;-75
2022/06/04 02:24:06;;;;;;;13.73;6.60;;;;;;;;;;5057681;28;20818;-75
2022/06/04 02:26:33;;;;;;;10.27;6.45;;;;;;;;;;5058824;28;20048;-75
2022/06/04 02:29:01;;;;;;;9.30;5.88;;;;;;;;;;5060481;28;20147;-75
2022/06/04 02:31:33;;;;;;;12.23;7.00;;;;;;;;;;5056045;28;21224;-75
2022/06/04 02:34:23;;;;;;;9.70;6.20;;;;;;;;;;5048510;28;20155;-75
2022/06/04 02:36:55;;;;;;;10.15;6.28;;;;;;;;;;5049937;28;20222;-75
2022/06/04 02:39:38;;;;;;;13.10;6.22;;;;;;;;;;5043946;28;20126;-74
2022/06/04 02:42:26;;;;;;;15.02;6.68;;;;;;;;;;5033347;28;20083;-75
2022/06/04 02:44:58;;;;;;;10.60;6.65;;;;;;;;;;5035092;28;20424;-76
2022/06/04 02:47:29;;;;;;;16.48;7.18;;;;;;;;;;5052195;28;20074;-75
2022/06/04 02:50:00;;;;;;;12.20;6.85;;;;;;;;;;5027846;28;20083;-75
2022/06/04 02:52:28;;;;;;;14.15;6.95;;;;;;;;;;5045180;28;20416;-76
2022/06/04 02:54:57;;;;;;;13.35;6.55;;;;;;;;;;5044517;28;20098;-76
2022/06/04 02:57:26;;;;;;;12.02;7.07;;;;;;;;;;5040460;28;20083;-76
2022/06/04 02:59:54;;;;;;;14.88;6.60;;;;;;;;;;5030206;28;20056;-76
2022/06/04 03:02:22;;;;;;;9.63;6.80;;;;;;;;;;5051181;28;20135;-76
2022/06/04 03:04:56;;;;;;;14.45;7.53;;;;;;;;;;5047983;28;20036;-76
2022/06/04 03:07:24;;;;;;;13.13;7.70;;;;;;;;;;5057337;28;20157;-76
2022/06/04 03:09:55;;;;;;;12.15;6.45;;;;;;;;;;5049411;28;20913;-76
2022/06/04 03:12:31;;;;;;;11.40;6.38;;;;;;;;;;5058462;28;20135;-75
2022/06/04 03:14:58;;;;;;;13.25;6.80;;;;;;;;;;5046207;28;20052;-75
2022/06/04 03:17:25;;;;;;;11.60;6.40;;;;;;;;;;5032581;28;20079;-75
2022/06/04 03:19:53;;;;;;;13.82;6.65;;;;;;;;;;5055562;28;20076;-76
2022/06/04 03:22:20;;;;;;;15.65;7.63;;;;;;;;;;5034358;28;20040;-75
2022/06/04 03:24:48;;;;;;;11.77;6.47;;;;;;;;;;5061221;28;20068;-74
2022/06/04 03:27:15;;;;;;;13.13;7.05;;;;;;;;;;5065768;28;20586;-74
2022/06/04 03:29:42;;;;;;;10.68;6.60;;;;;;;;;;5065586;28;20048;-75
2022/06/04 03:32:09;;;;;;;11.35;7.13;;;;;;;;;;5065294;28;20183;-74
2022/06/04 03:34:37;;;;;;;14.88;6.82;;;;;;;;;;5067053;28;20416;-75
2022/06/04 03:37:04;;;;;;;11.63;7.53;;;;;;;;;;5065302;28;20136;-75
2022/06/04 03:39:31;;;;;;;14.40;8.05;;;;;;;;;;5058593;28;20084;-74
2022/06/04 03:42:01;;;;;;;18.20;8.27;;;;;;;;;;5069143;28;20411;-75
2022/06/04 03:44:28;;;;;;;13.98;7.82;;;;;;;;;;5066527;28;20169;-75
2022/06/04 03:46:56;;;;;;;16.80;8.13;;;;;;;;;;5064596;28;20080;-75
2022/06/04 03:49:23;;;;;;;11.63;7.55;;;;;;;;;;5056411;28;20124;-75
2022/06/04 03:51:51;;;;;;;13.05;8.40;;;;;;;;;;5066169;28;20083;-75
2022/06/04 03:54:52;;;;;;;10.80;6.93;;;;;;;;;;5066741;28;20131;-75
2022/06/04 03:59:52;;;;;;;13.35;7.80;;;;;;;;;;5054997;28;20424;-76
2022/06/04 04:02:20;;;;;;;11.23;7.25;;;;;;;;;;5044200;28;20485;-76
2022/06/04 04:04:47;;;;;;;11.45;8.02;;;;;;;;;;5056782;28;20059;-76
2022/06/04 04:07:15;;;;;;;12.15;8.07;;;;;;;;;;5045138;28;20047;-76
2022/06/04 04:09:45;;;;;;;13.60;8.68;;;;;;;;;;5050158;28;20068;-75
2022/06/04 04:12:12;;;;;;;15.40;8.80;;;;;;;;;;5028139;28;20052;-75
2022/06/04 04:14:42;;;;;;;17.67;9.02;;;;;;;;;;5035063;28;20062;-75
2022/06/04 04:17:09;;;;;;;14.00;8.95;;;;;;;;;;5059671;28;20147;-76
2022/06/04 04:19:37;;;;;;;15.32;9.32;;;;;;;;;;5046515;28;20167;-76
2022/06/04 04:22:04;;;;;;;20.65;8.82;;;;;;;;;;5055656;28;20134;-76
2022/06/04 04:24:31;;;;;;;17.13;9.07;;;;;;;;;;5035765;28;20045;-76
2022/06/04 04:26:59;;;;;;;23.50;10.38;;;;;;;;;;5048996;28;20121;-75
2022/06/04 04:29:26;;;;;;;16.88;10.32;;;;;;;;;;5056813;28;20087;-76
2022/06/04 04:31:53;;;;;;;20.42;10.63;;;;;;;;;;5061438;28;21359;-75
2022/06/04 04:34:21;;;;;;;23.65;12.00;;;;;;;;;;5060974;28;20098;-75
2022/06/04 04:36:48;;;;;;;20.58;11.80;;;;;;;;;;5061909;28;20157;-76
2022/06/04 04:39:15;;;;;;;21.08;11.23;;;;;;;;;;5065419;28;20056;-75
2022/06/04 04:41:45;;;;;;;25.67;12.00;;;;;;;;;;5066876;28;20090;-75
2022/06/04 04:44:13;;;;;;;22.23;11.90;;;;;;;;;;5061913;28;20145;-74
2022/06/04 04:49:17;;;;;;;24.42;13.38;;;;;;;;;;5020252;28;20099;-75
2022/06/04 04:51:45;;;;;;;25.25;12.80;;;;;;;;;;5008431;28;20222;-76
2022/06/04 04:54:12;;;;;;;26.08;12.55;;;;;;;;;;5026590;28;20057;-76
2022/06/04 04:56:40;;;;;;;26.35;13.82;;;;;;;;;;5009453;28;20053;-75
2022/06/04 04:59:08;;;;;;;25.02;13.13;;;;;;;;;;5026247;28;20053;-75
2022/06/04 05:01:35;;;;;;;24.23;14.05;;;;;;;;;;5027435;28;20136;-76
2022/06/04 05:04:03;;;;;;;32.70;15.30;;;;;;;;;;5009831;28;20050;-76
2022/06/04 05:06:30;;;;;;;29.95;14.68;;;;;;;;;;5028772;28;20146;-76
2022/06/04 05:08:58;;;;;;;28.98;15.55;;;;;;;;;;5027584;28;20053;-76
2022/06/04 05:11:29;;;;;;;30.73;16.42;;;;;;;;;;5026858;28;20140;-76
2022/06/04 05:13:57;;;;;;;41.00;16.48;;;;;;;;;;5029008;28;20123;-77
2022/06/04 05:16:26;;;;;;;27.13;16.00;;;;;;;;;;5027108;28;20132;-76
2022/06/04 05:18:54;;;;;;;27.95;15.93;;;;;;;;;;5006964;28;20152;-76
2022/06/04 05:21:24;;;;;;;28.42;16.50;;;;;;;;;;5023192;28;20589;-77
2022/06/04 05:23:53;;;;;;;26.45;15.30;;;;;;;;;;5026582;28;20045;-74
2022/06/04 05:26:21;;;;;;;26.45;15.23;;;;;;;;;;5019761;28;20069;-75
2022/06/04 05:28:48;;;;;;;22.23;15.10;;;;;;;;;;5010000;28;20049;-75
2022/06/04 05:31:15;;;;;;;25.83;14.25;;;;;;;;;;5023100;28;20068;-76
2022/06/04 05:33:42;;;;;;;24.95;15.77;;;;;;;;;;5028243;28;20059;-76
2022/06/04 05:36:10;;;;;;;28.08;15.70;;;;;;;;;;5030255;28;20123;-76
2022/06/04 05:38:37;;;;;;;25.83;15.18;;;;;;;;;;5020938;28;20068;-76
2022/06/04 05:41:06;;;;;;;29.15;16.27;;;;;;;;;;5038053;28;20072;-76
2022/06/04 05:43:34;;;;;;;29.58;16.23;;;;;;;;;;5025235;28;20088;-75
2022/06/04 05:46:03;;;;;;;30.08;16.83;;;;;;;;;;5007474;28;20038;-74
2022/06/04 05:48:31;;;;;;;26.17;16.10;;;;;;;;;;5026662;28;20081;-76
2022/06/04 05:50:59;;;;;;;32.88;16.90;;;;;;;;;;5010059;28;20128;-75
2022/06/04 05:53:27;;;;;;;28.85;16.63;;;;;;;;;;5027123;28;20083;-75
2022/06/04 05:55:54;;;;;;;27.08;14.50;;;;;;;;;;5034864;28;20061;-75
2022/06/04 05:58:21;;;;;;;26.65;14.68;;;;;;;;;;5026956;28;20855;-74
2022/06/04 06:00:49;;;;;;;31.08;14.88;;;;;;;;;;5025684;28;20061;-75
2022/06/04 06:03:16;;;;;;;20.80;14.30;;;;;;;;;;5013567;28;20064;-74
2022/06/04 06:05:45;;;;;;;22.70;14.13;;;;;;;;;;4987939;28;20815;-74
2022/06/04 06:08:13;;;;;;;24.73;14.30;;;;;;;;;;5023638;28;20077;-75
2022/06/04 06:10:46;;;;;;;20.45;13.30;;;;;;;;;;5027680;28;20119;-75
2022/06/04 06:13:14;;;;;;;19.83;11.50;;;;;;;;;;5023555;28;20122;-75
2022/06/04 06:15:41;;;;;;;23.85;12.43;;;;;;;;;;5023674;28;20076;-74
2022/06/04 06:18:09;;;;;;;18.58;10.80;;;;;;;;;;5019134;28;20069;-75
2022/06/04 06:20:36;;;;;;;17.17;9.75;;;;;;;;;;5025762;28;20088;-73
2022/06/04 06:23:04;;;;;;;17.30;8.90;;;;;;;;;;5023768;28;20500;-75
2022/06/04 06:25:31;;;;;;;16.42;9.52;;;;;;;;;;5007371;28;20088;-76
2022/06/04 06:27:58;;;;;;;11.55;7.63;;;;;;;;;;5023800;28;20164;-75
2022/06/04 06:30:27;;;;;;;14.63;7.90;;;;;;;;;;5023428;28;20196;-75
2022/06/04 06:32:54;;;;;;;9.52;6.90;;;;;;;;;;5018857;28;20565;-75
2022/06/04 06:35:21;;;;;;;12.02;8.15;;;;;;;;;;5037236;28;20148;-76
2022/06/04 06:37:49;;;;;;;16.88;6.43;;;;;;;;;;5029960;28;20081;-74
2022/06/04 06:40:16;;;;;;;8.85;5.38;;;;;;;;;;5009680;28;20840;-76
2022/06/04 06:42:44;;;;;;;14.98;5.38;;;;;;;;;;5029323;28;20165;-77
2022/06/04 06:45:11;;;;;;;8.32;5.05;;;;;;;;;;5028742;28;20084;-77
2022/06/04 06:47:40;;;;;;;11.00;6.40;;;;;;;;;;5028779;28;20080;-76
2022/06/04 06:50:08;;;;;;;11.70;5.38;;;;;;;;;;5029062;28;20041;-76
2022/06/04 06:52:35;;;;;;;10.52;5.57;;;;;;;;;;5032221;28;20085;-77
2022/06/04 06:55:03;;;;;;;17.75;10.27;;;;;;;;;;5015662;28;20081;-76
2022/06/04 06:57:30;;;;;;;8.05;5.25;;;;;;;;;;5033685;28;20137;-76
2022/06/04 06:59:57;;;;;;;13.27;5.75;;;;;;;;;;5033751;28;20050;-76
2022/06/04 07:02:25;;;;;;;177.60;19.25;;;;;;;;;;5034774;28;20077;-77
2022/06/04 07:04:55;;;;;;;42.85;5.45;;;;;;;;;;5033718;28;20053;-77
2022/06/04 07:07:22;;;;;;;7.85;4.50;;;;;;;;;;5033128;28;20088;-77
2022/06/04 07:09:51;;;;;;;9.43;4.65;;;;;;;;;;5031793;28;20107;-76
2022/06/04 07:12:19;;;;;;;9.60;3.80;;;;;;;;;;5012848;28;20045;-77
2022/06/04 07:14:46;;;;;;;8.48;4.05;;;;;;;;;;5014793;28;20128;-77
2022/06/04 07:17:13;;;;;;;10.30;4.72;;;;;;;;;;5014188;28;20304;-77
2022/06/04 07:19:40;;;;;;;9.55;4.47;;;;;;;;;;5017238;28;20413;-77
2022/06/04 07:22:08;;;;;;;13.82;4.68;;;;;;;;;;5031351;28;20132;-77
2022/06/04 07:24:35;;;;;;;8.23;4.22;;;;;;;;;;5027959;28;20104;-76
2022/06/04 07:27:03;;;;;;;16.75;5.57;;;;;;;;;;5030556;28;20049;-77
2022/06/04 07:29:30;;;;;;;5.57;3.83;;;;;;;;;;5030467;28;20079;-76
2022/06/04 07:31:57;;;;;;;9.18;3.72;;;;;;;;;;5031937;28;20180;-76
2022/06/04 07:34:25;;;;;;;11.05;4.53;;;;;;;;;;5030591;28;20808;-76
2022/06/04 07:36:53;;;;;;;5.60;3.67;;;;;;;;;;5015184;28;20474;-76
2022/06/04 07:39:20;;;;;;;13.00;4.93;;;;;;;;;;5029420;28;20045;-79
2022/06/04 07:41:52;;;;;;;12.48;4.28;;;;;;;;;;5012797;28;20088;-77
2022/06/04 07:44:20;;;;;;;11.10;4.50;;;;;;;;;;5028940;28;20082;-77
2022/06/04 07:46:48;;;;;;;8.18;4.10;;;;;;;;;;5031576;28;20069;-77
2022/06/04 07:49:16;;;;;;;11.30;4.72;;;;;;;;;;5029404;28;20076;-77
2022/06/04 07:51:44;;;;;;;11.27;3.72;;;;;;;;;;5021931;28;20124;-78
2022/06/04 07:54:11;;;;;;;7.63;4.28;;;;;;;;;;5030852;28;20448;-77
2022/06/04 07:56:39;;;;;;;9.18;4.20;;;;;;;;;;5030143;28;20740;-77
2022/06/04 07:59:08;;;;;;;8.00;3.92;;;;;;;;;;5013052;28;20046;-77
2022/06/04 08:01:36;;;;;;;5.78;3.83;;;;;;;;;;5026857;28;20107;-77
2022/06/04 08:04:03;;;;;;;8.73;4.13;;;;;;;;;;5028098;28;20537;-77
2022/06/04 08:06:32;;;;;;;11.30;4.05;;;;;;;;;;5031591;28;20061;-81
2022/06/04 08:09:00;;;;;;;6.82;4.20;;;;;;;;;;5029551;28;20120;-77
2022/06/04 08:11:31;;;;;;;5.95;3.58;;;;;;;;;;5029342;28;20049;-77
2022/06/04 08:13:59;;;;;;;10.20;3.65;;;;;;;;;;5030618;28;20046;-77
2022/06/04 08:16:27;;;;;;;3.53;3.17;;;;;;;;;;5011785;28;20747;-77
2022/06/04 08:18:54;;;;;;;5.15;3.42;;;;;;;;;;5016754;28;20060;-77
2022/06/04 08:21:22;;;;;;;13.88;3.63;;;;;;;;;;5030055;28;20084;-77
2022/06/04 08:23:49;;;;;;;11.68;3.38;;;;;;;;;;5009119;28;20129;-77
2022/06/04 08:26:17;;;;;;;7.57;3.85;;;;;;;;;;5026715;28;20140;-77
2022/06/04 08:28:44;;;;;;;10.07;3.85;;;;;;;;;;5029020;28;20049;-78
2022/06/04 08:31:13;;;;;;;6.13;3.67;;;;;;;;;;5027162;28;20091;-78
2022/06/04 08:33:41;;;;;;;8.10;3.40;;;;;;;;;;5012102;28;20065;-77
2022/06/04 08:36:09;;;;;;;6.00;3.60;;;;;;;;;;5011729;28;20128;-78
2022/06/04 08:38:37;;;;;;;5.80;3.60;;;;;;;;;;5010249;28;20194;-78
2022/06/04 08:41:06;;;;;;;6.20;3.80;;;;;;;;;;5011246;28;20140;-77
2022/06/04 08:43:36;;;;;;;4.25;3.20;;;;;;;;;;5029168;28;20135;-78
2022/06/04 08:46:08;;;;;;;7.85;3.47;;;;;;;;;;5003681;28;20119;-77
2022/06/04 08:48:40;;;;;;;5.20;3.15;;;;;;;;;;5028734;28;20628;-78
2022/06/04 08:51:15;;;;;;;6.35;2.80;;;;;;;;;;5030306;28;20129;-78
2022/06/04 08:53:42;;;;;;;4.70;2.90;;;;;;;;;;5029287;28;20057;-78
2022/06/04 08:58:59;;;;;;;3.63;2.70;;;;;;;;;;5028981;28;20107;-78
2022/06/04 09:01:38;;;;;;;4.30;2.70;;;;;;;;;;5009284;28;20447;-78
2022/06/04 09:04:14;;;;;;;8.70;3.17;;;;;;;;;;5021958;28;20045;-79
2022/06/04 09:06:41;;;;;;;4.88;2.97;;;;;;;;;;5009575;28;20064;-77
2022/06/04 09:09:15;;;;;;;3.72;2.70;;;;;;;;;;5008449;28;20089;-77
2022/06/04 09:11:50;;;;;;;4.53;2.95;;;;;;;;;;5025929;28;20141;-78
2022/06/04 09:14:21;;;;;;;6.32;2.75;;;;;;;;;;5026952;28;20080;-77
2022/06/04 09:16:52;;;;;;;4.53;2.75;;;;;;;;;;5009529;28;20057;-78
2022/06/04 09:19:21;;;;;;;5.78;2.80;;;;;;;;;;5009246;28;20051;-78
2022/06/04 09:21:49;;;;;;;8.18;2.80;;;;;;;;;;5029044;28;20088;-79
2022/06/04 09:24:16;;;;;;;6.97;3.08;;;;;;;;;;5026415;28;20060;-74
2022/06/04 09:26:53;;;;;;;4.28;2.42;;;;;;;;;;5022315;28;20810;-75
2022/06/04 09:29:29;;;;;;;4.57;2.55;;;;;;;;;;5025078;28;20069;-75
2022/06/04 09:32:20;;;;;;;6.03;2.53;;;;;;;;;;5024265;28;20123;-75
2022/06/04 09:34:51;;;;;;;7.25;2.70;;;;;;;;;;5016004;28;20053;-75
2022/06/04 09:37:19;;;;;;;4.35;2.55;;;;;;;;;;5007584;28;20136;-75
2022/06/04 09:39:48;;;;;;;5.22;2.63;;;;;;;;;;5024433;28;20049;-76
2022/06/04 09:42:23;;;;;;;4.95;2.80;;;;;;;;;;5006756;28;20096;-74
2022/06/04 09:45:01;;;;;;;3.40;2.55;;;;;;;;;;5022985;28;20820;-74
2022/06/04 09:47:38;;;;;;;4.90;2.90;;;;;;;;;;5018655;28;20058;-75
2022/06/04 09:50:27;;;;;;;5.70;3.67;;;;;;;;;;5022943;28;20840;-75
2022/06/04 09:52:57;;;;;;;8.52;3.70;;;;;;;;;;5009196;28;20061;-75
2022/06/04 09:55:26;;;;;;;8.93;3.85;;;;;;;;;;5009630;28;20081;-75
2022/06/04 09:57:59;;;;;;;8.00;4.28;;;;;;;;;;5026211;28;20081;-76
2022/06/04 10:00:38;;;;;;;5.72;3.55;;;;;;;;;;5018298;28;20469;-76
2022/06/04 10:03:14;;;;;;;8.20;3.60;;;;;;;;;;5007251;28;20092;-76
2022/06/04 10:05:52;;;;;;;6.05;3.28;;;;;;;;;;5019619;28;20512;-76
2022/06/04 10:08:23;;;;;;;5.93;3.20;;;;;;;;;;5008273;28;20141;-77
2022/06/04 10:10:57;;;;;;;4.35;3.08;;;;;;;;;;4999476;28;20058;-76
2022/06/04 10:13:46;;;;;;;3.15;2.17;;;;;;;;;;5016321;28;20508;-76
2022/06/04 10:16:27;;;;;;;6.18;2.90;;;;;;;;;;5014093;28;20128;-76
2022/06/04 10:18:57;;;;;;;4.65;2.83;;;;;;;;;;5012297;28;20849;-76
2022/06/04 10:21:27;;;;;;;3.80;2.60;;;;;;;;;;5018194;28;20594;-76
2022/06/04 10:23:57;;;;;;;5.32;3.90;;;;;;;;;;5015110;28;20144;-74
2022/06/04 10:26:24;;;;;;;4.38;3.13;;;;;;;;;;5020968;28;20107;-76
2022/06/04 10:28:54;;;;;;;5.40;2.90;;;;;;;;;;5019138;28;20141;-75
2022/06/04 10:31:28;;;;;;;9.55;3.28;;;;;;;;;;5021295;28;20088;-75
2022/06/04 10:34:16;;;;;;;4.28;3.35;;;;;;;;;;5021056;28;20060;-77
2022/06/04 10:37:02;;;;;;;6.95;3.72;;;;;;;;;;5021949;28;20168;-75
2022/06/04 10:39:39;;;;;;;6.43;4.40;;;;;;;;;;5018853;28;20204;-76
2022/06/04 10:42:26;;;;;;;9.98;4.20;;;;;;;;;;5027343;28;20183;-75
2022/06/04 10:45:04;;;;;;;8.30;4.00;;;;;;;;;;5020100;28;20804;-77
2022/06/04 10:47:51;;;;;;;4.57;3.33;;;;;;;;;;5024662;28;20137;-76
2022/06/04 10:50:23;;;;;;;6.18;3.22;;;;;;;;;;5028746;28;20144;-75
2022/06/04 10:52:58;;;;;;;6.40;4.43;;;;;;;;;;5011954;28;20148;-77
2022/06/04 10:55:44;;;;;;;8.07;4.32;;;;;;;;;;5026973;28;20505;-76
2022/06/04 10:58:23;;;;;;;7.88;3.90;;;;;;;;;;5013817;28;20136;-76
2022/06/04 11:00:54;;;;;;;8.05;4.38;;;;;;;;;;5012016;28;20052;-76
2022/06/04 11:03:28;;;;;;;6.38;4.55;;;;;;;;;;5018177;28;20413;-78
2022/06/04 11:06:03;;;;;;;9.68;4.03;;;;;;;;;;5028607;28;20081;-77
2022/06/04 11:08:33;;;;;;;8.68;4.63;;;;;;;;;;5015527;28;20104;-76
2022/06/04 11:11:00;;;;;;;8.13;5.30;;;;;;;;;;5016505;28;21139;-76
2022/06/04 11:13:33;;;;;;;10.23;5.35;;;;;;;;;;5023182;28;20119;-76
2022/06/04 11:16:09;;;;;;;10.77;4.03;;;;;;;;;;5035586;28;20128;-76
2022/06/04 11:18:43;;;;;;;5.20;3.97;;;;;;;;;;5008564;28;20041;-76
2022/06/04 11:21:21;;;;;;;5.93;4.13;;;;;;;;;;5036413;28;20104;-77
2022/06/04 11:23:51;;;;;;;7.43;4.20;;;;;;;;;;5028372;28;20493;-77
2022/06/04 11:26:22;;;;;;;6.20;3.50;;;;;;;;;;5032372;28;20621;-76
2022/06/04 11:28:59;;;;;;;6.50;3.83;;;;;;;;;;5026199;28;20498;-76
2022/06/04 11:31:46;;;;;;;5.70;4.45;;;;;;;;;;5028085;28;20488;-76
2022/06/04 11:34:34;;;;;;;5.93;4.07;;;;;;;;;;5016365;28;20500;-77
2022/06/04 11:37:05;;;;;;;7.15;5.30;;;;;;;;;;5023826;28;20901;-76
2022/06/04 11:39:51;;;;;;;7.47;3.78;;;;;;;;;;5033705;28;20049;-77
2022/06/04 11:42:26;;;;;;;8.00;4.35;;;;;;;;;;5027643;28;20199;-76
2022/06/04 11:44:59;;;;;;;6.10;4.85;;;;;;;;;;5034301;28;20493;-77
2022/06/04 11:47:41;;;;;;;8.40;4.88;;;;;;;;;;5027653;28;20137;-76
2022/06/04 11:50:27;;;;;;;10.25;4.97;;;;;;;;;;5027367;28;20085;-76
2022/06/04 11:53:00;;;;;;;8.25;5.20;;;;;;;;;;5006299;28;20159;-76
2022/06/04 11:55:35;;;;;;;11.02;4.95;;;;;;;;;;5027920;28;20049;-76
2022/06/04 11:58:08;;;;;;;9.20;5.07;;;;;;;;;;5009764;28;20132;-76
2022/06/04 12:00:38;;;;;;;9.90;4.95;;;;;;;;;;5039838;28;20480;-77
2022/06/04 12:03:24;;;;;;;11.27;4.55;;;;;;;;;;5027539;28;20140;-77
2022/06/04 12:05:58;;;;;;;8.98;4.78;;;;;;;;;;5026793;28;20050;-76
2022/06/04 12:08:28;;;;;;;11.27;4.78;;;;;;;;;;5011847;28;20050;-75
2022/06/04 12:11:04;;;;;;;36.08;6.03;;;;;;;;;;5018677;28;20593;-76
2022/06/04 12:13:43;;;;;;;12.32;4.20;;;;;;;;;;5025737;28;20076;-75
2022/06/04 12:16:16;;;;;;;9.23;4.93;;;;;;;;;;5018708;28;20137;-75
2022/06/04 12:18:50;;;;;;;9.45;4.82;;;;;;;;;;5019205;28;20080;-76
2022/06/04 12:24:18;;;;;;;8.55;4.32;;;;;;;;;;5020626;28;20053;-75
2022/06/04 12:26:48;;;;;;;12.55;5.10;;;;;;;;;;5021882;28;20141;-75
2022/06/04 12:29:31;;;;;;;8.85;5.00;;;;;;;;;;5022587;28;20485;-75
2022/06/04 12:32:00;;;;;;;10.40;4.68;;;;;;;;;;5009166;28;20064;-75
2022/06/04 12:34:31;;;;;;;6.78;4.55;;;;;;;;;;5021077;28;20053;-76
2022/06/04 12:36:58;;;;;;;9.48;4.75;;;;;;;;;;5002362;28;20081;-76
2022/06/04 12:39:28;;;;;;;10.35;4.78;;;;;;;;;;5012301;28;20141;-76
2022/06/04 12:41:57;;;;;;;9.20;5.18;;;;;;;;;;5000428;28;20137;-75
2022/06/04 12:44:33;;;;;;;9.40;5.28;;;;;;;;;;5013417;28;20100;-76
2022/06/04 12:47:33;;;;;;;9.25;4.65;;;;;;;;;;5022240;28;20052;-76
2022/06/04 12:50:19;;;;;;;7.28;4.95;;;;;;;;;;4976822;28;20148;-76
2022/06/04 12:52:50;;;;;;;11.25;4.68;;;;;;;;;;5005629;28;20150;-75
2022/06/04 12:55:22;;;;;;;7.55;4.57;;;;;;;;;;4996353;28;20072;-75
2022/06/04 12:57:55;;;;;;;13.30;5.57;;;;;;;;;;5024105;28;20135;-75
2022/06/04 13:00:25;;;;;;;8.27;4.53;;;;;;;;;;5017669;28;20115;-75
2022/06/04 13:03:05;;;;;;;9.70;3.92;;;;;;;;;;5027089;28;20053;-76
2022/06/04 13:05:34;;;;;;;10.02;4.82;;;;;;;;;;5022391;28;20152;-75
2022/06/04 13:08:05;;;;;;;11.32;5.30;;;;;;;;;;5000632;28;20144;-75
2022/06/04 13:10:32;;;;;;;6.65;5.10;;;;;;;;;;5021410;28;20144;-76
2022/06/04 13:13:18;;;;;;;9.77;5.20;;;;;;;;;;5001145;28;20416;-76
2022/06/04 13:15:53;;;;;;;9.48;4.90;;;;;;;;;;5022361;28;20085;-75
2022/06/04 13:18:21;;;;;;;;;;;;;;;;;;5017192;28;20067;-75
2022/06/04 13:20:56;;;;;;;10.02;4.68;;;;;;;;;;5017740;28;19974;-76
2022/06/04 13:23:26;;;;;;;7.85;4.63;;;;;;;;;;5005651;28;20143;-78
2022/06/04 13:26:09;;;;;;;5.82;4.07;;;;;;;;;;5019586;28;20132;-76
2022/06/04 13:28:41;;;;;;;10.48;4.97;;;;;;;;;;5013823;28;20123;-75
2022/06/04 13:31:24;;;;;;;10.95;4.78;;;;;;;;;;5024471;28;20072;-76
2022/06/04 13:33:53;;;;;;;10.23;4.95;;;;;;;;;;5016307;28;20368;-79
2022/06/04 13:36:22;;;;;;;10.15;5.65;;;;;;;;;;5017501;28;20140;-76
2022/06/04 13:38:51;;;;;;;10.40;4.55;;;;;;;;;;5024294;28;20171;-74
2022/06/04 13:42:00;;;;;;;10.18;5.20;;;;;;;;;;5000372;28;20056;-75
2022/06/04 13:44:09;;;;;;;9.95;4.50;;;;;;;;;;5016539;28;20602;-75
2022/06/04 13:46:36;;;;;;;12.45;5.32;;;;;;;;;;5023507;28;20168;-73
2022/06/04 13:49:14;;;;;;;12.45;5.28;;;;;;;;;;5017003;28;20711;-75
2022/06/04 13:51:44;;;;;;;10.95;5.22;;;;;;;;;;5000723;28;20048;-76
2022/06/04 13:54:38;;;;;;;10.93;5.15;;;;;;;;;;5001623;28;20157;-75
2022/06/04 13:57:15;;;;;;;8.80;4.18;;;;;;;;;;5015970;28;20826;-78
2022/06/04 13:59:44;;;;;;;8.90;5.07;;;;;;;;;;5013097;28;21115;-76
2022/06/04 14:02:22;;;;;;;9.05;4.60;;;;;;;;;;5022557;28;20099;-79
2022/06/04 14:07:39;;;;;;;7.07;4.50;;;;;;;;;;5012984;28;20085;-77
2022/06/04 14:10:19;;;;;;;10.90;5.00;;;;;;;;;;5034760;28;20057;-77
2022/06/04 14:12:58;;;;;;;7.97;5.15;;;;;;;;;;5021055;28;20168;-78
2022/06/04 14:15:26;;;;;;;13.40;4.68;;;;;;;;;;5022466;28;20172;-77
2022/06/04 14:17:53;;;;;;;6.53;4.63;;;;;;;;;;5011311;28;20084;-78
2022/06/04 14:20:32;;;;;;;12.20;4.70;;;;;;;;;;5018325;28;20218;-76
2022/06/04 14:23:02;;;;;;;7.38;4.60;;;;;;;;;;5006840;28;20529;-76
2022/06/04 14:25:36;;;;;;;9.88;4.70;;;;;;;;;;4999029;28;20084;-75
2022/06/04 14:28:15;;;;;;;8.25;4.63;;;;;;;;;;5024880;28;20057;-76
2022/06/04 14:30:42;;;;;;;10.45;5.28;;;;;;;;;;5018089;28;20058;-76
2022/06/04 14:33:20;;;;;;;8.80;4.95;;;;;;;;;;5002826;28;20115;-75
2022/06/04 14:36:00;;;;;;;8.02;4.57;;;;;;;;;;5024271;28;20741;-77
2022/06/04 14:38:28;;;;;;;11.30;5.03;;;;;;;;;;5018818;28;20058;-76
2022/06/04 14:41:02;;;;;;;10.68;4.20;;;;;;;;;;4999994;28;20136;-77
2022/06/04 14:43:48;;;;;;;8.52;4.75;;;;;;;;;;5023367;28;20085;-76
2022/06/04 14:46:34;;;;;;;10.18;4.15;;;;;;;;;;5013252;28;20045;-76
2022/06/04 14:49:05;;;;;;;6.35;4.07;;;;;;;;;;5014008;28;20111;-76
2022/06/04 14:51:51;;;;;;;6.93;4.13;;;;;;;;;;5014184;28;20098;-76
2022/06/04 14:54:19;;;;;;;8.27;4.10;;;;;;;;;;5015409;28;20181;-76
2022/06/04 14:56:58;;;;;;;11.40;4.40;;;;;;;;;;5025367;28;20054;-76
2022/06/04 14:59:36;;;;;;;7.63;3.90;;;;;;;;;;5026641;28;20141;-76
2022/06/04 15:02:04;;;;;;;13.25;4.22;;;;;;;;;;5024098;28;20069;-76
2022/06/04 15:07:42;;;;;;;6.75;3.80;;;;;;;;;;5025764;28;20164;-76
2022/06/04 15:10:13;;;;;;;14.35;4.60;;;;;;;;;;5005776;28;20077;-76
2022/06/04 15:12:46;;;;;;;6.53;3.50;;;;;;;;;;5027851;28;20562;-76
2022/06/04 15:15:25;;;;;;;6.20;3.65;;;;;;;;;;5028650;28;20123;-76
2022/06/04 15:18:04;;;;;;;4.95;3.35;;;;;;;;;;5026990;28;20887;-76
2022/06/04 15:20:39;;;;;;;6.90;3.42;;;;;;;;;;5024556;28;20115;-76
2022/06/04 15:23:22;;;;;;;8.00;4.05;;;;;;;;;;5026800;28;20143;-76
2022/06/04 15:25:49;;;;;;;10.00;3.65;;;;;;;;;;5028058;28;20165;-76